sensor_id;sensor_type;location;lat;lon;timestamp;P1;durP1;ratioP1;P2;durP2;ratioP2
27740;SDS011;15134;48.768;9.184;2023-11-19T00:00:33;848.55;;;711.22;;
27740;SDS011;15134;48.768;9.184;2023-11-19T00:02:59;849.37;;;712.37;;
27740;SDS011;15134;48.768;9.184;2023-11-19T00:05:25;854.63;;;720.45;;
27740;SDS011;15134;48.768;9.184;2023-11-19T00:07:52;847.65;;;710.45;;
27740;SDS011;15134;48.768;9.184;2023-11-19T00:10:18;852.50;;;716.80;;
27740;SDS011;15134;48.768;9.184;2023-11-19T00:12:49;850.17;;;712.60;;
27740;SDS011;15134;48.768;9.184;2023-11-19T00:15:15;850.45;;;714.70;;
27740;SDS011;15134;48.768;9.184;2023-11-19T00:17:46;853.40;;;722.22;;
27740;SDS011;15134;48.768;9.184;2023-11-19T00:20:13;853.77;;;720.50;;
27740;SDS011;15134;48.768;9.184;2023-11-19T00:22:40;849.55;;;711.58;;
27740;SDS011;15134;48.768;9.184;2023-11-19T00:25:07;855.10;;;727.63;;
27740;SDS011;15134;48.768;9.184;2023-11-19T00:27:33;854.00;;;722.20;;
27740;SDS011;15134;48.768;9.184;2023-11-19T00:29:59;856.13;;;721.00;;
27740;SDS011;15134;48.768;9.184;2023-11-19T00:32:25;853.00;;;719.60;;
27740;SDS011;15134;48.768;9.184;2023-11-19T00:34:51;855.50;;;727.72;;
27740;SDS011;15134;48.768;9.184;2023-11-19T00:37:17;858.75;;;729.97;;
27740;SDS011;15134;48.768;9.184;2023-11-19T00:39:43;857.60;;;732.00;;
27740;SDS011;15134;48.768;9.184;2023-11-19T00:42:09;858.78;;;736.47;;
27740;SDS011;15134;48.768;9.184;2023-11-19T00:44:35;858.58;;;734.15;;
27740;SDS011;15134;48.768;9.184;2023-11-19T00:47:01;859.95;;;739.85;;
27740;SDS011;15134;48.768;9.184;2023-11-19T00:49:27;861.25;;;740.28;;
27740;SDS011;15134;48.768;9.184;2023-11-19T00:51:53;860.07;;;737.77;;
27740;SDS011;15134;48.768;9.184;2023-11-19T00:54:19;856.97;;;734.25;;
27740;SDS011;15134;48.768;9.184;2023-11-19T00:56:45;862.80;;;742.60;;
27740;SDS011;15134;48.768;9.184;2023-11-19T00:59:11;857.53;;;735.72;;
27740;SDS011;15134;48.768;9.184;2023-11-19T01:01:37;860.57;;;741.57;;
27740;SDS011;15134;48.768;9.184;2023-11-19T01:04:02;859.17;;;736.00;;
27740;SDS011;15134;48.768;9.184;2023-11-19T01:06:29;854.93;;;729.50;;
27740;SDS011;15134;48.768;9.184;2023-11-19T01:08:55;856.05;;;730.97;;
27740;SDS011;15134;48.768;9.184;2023-11-19T01:11:25;857.25;;;734.92;;
27740;SDS011;15134;48.768;9.184;2023-11-19T01:13:51;858.10;;;734.00;;
27740;SDS011;15134;48.768;9.184;2023-11-19T01:16:18;858.75;;;738.63;;
27740;SDS011;15134;48.768;9.184;2023-11-19T01:18:44;858.50;;;735.63;;
27740;SDS011;15134;48.768;9.184;2023-11-19T01:21:12;863.05;;;747.30;;
27740;SDS011;15134;48.768;9.184;2023-11-19T01:23:39;861.38;;;741.45;;
27740;SDS011;15134;48.768;9.184;2023-11-19T01:26:08;861.38;;;742.88;;
27740;SDS011;15134;48.768;9.184;2023-11-19T01:28:35;864.60;;;750.35;;
27740;SDS011;15134;48.768;9.184;2023-11-19T01:31:02;867.80;;;753.20;;
27740;SDS011;15134;48.768;9.184;2023-11-19T01:33:29;862.60;;;745.40;;
27740;SDS011;15134;48.768;9.184;2023-11-19T01:35:55;862.17;;;742.73;;
27740;SDS011;15134;48.768;9.184;2023-11-19T01:38:23;860.73;;;740.03;;
27740;SDS011;15134;48.768;9.184;2023-11-19T01:40:49;864.40;;;746.65;;
27740;SDS011;15134;48.768;9.184;2023-11-19T01:43:31;864.45;;;749.72;;
27740;SDS011;15134;48.768;9.184;2023-11-19T01:45:58;864.30;;;752.50;;
27740;SDS011;15134;48.768;9.184;2023-11-19T01:48:24;862.50;;;746.80;;
27740;SDS011;15134;48.768;9.184;2023-11-19T01:50:50;862.47;;;746.67;;
27740;SDS011;15134;48.768;9.184;2023-11-19T01:53:17;864.17;;;749.83;;
27740;SDS011;15134;48.768;9.184;2023-11-19T01:55:44;864.92;;;752.42;;
27740;SDS011;15134;48.768;9.184;2023-11-19T01:58:12;866.55;;;755.22;;
27740;SDS011;15134;48.768;9.184;2023-11-19T02:00:38;867.35;;;757.00;;
27740;SDS011;15134;48.768;9.184;2023-11-19T02:03:05;867.23;;;755.20;;
27740;SDS011;15134;48.768;9.184;2023-11-19T02:05:33;865.10;;;750.13;;
27740;SDS011;15134;48.768;9.184;2023-11-19T02:08:00;867.20;;;753.72;;
27740;SDS011;15134;48.768;9.184;2023-11-19T02:10:26;867.57;;;757.90;;
27740;SDS011;15134;48.768;9.184;2023-11-19T02:12:52;864.97;;;753.05;;
27740;SDS011;15134;48.768;9.184;2023-11-19T02:15:20;865.13;;;751.47;;
27740;SDS011;15134;48.768;9.184;2023-11-19T02:17:50;869.63;;;763.60;;
27740;SDS011;15134;48.768;9.184;2023-11-19T02:20:16;868.25;;;761.15;;
27740;SDS011;15134;48.768;9.184;2023-11-19T02:22:45;870.00;;;762.85;;
27740;SDS011;15134;48.768;9.184;2023-11-19T02:25:17;870.90;;;766.33;;
27740;SDS011;15134;48.768;9.184;2023-11-19T02:27:54;868.40;;;760.10;;
27740;SDS011;15134;48.768;9.184;2023-11-19T02:30:24;872.17;;;768.60;;
27740;SDS011;15134;48.768;9.184;2023-11-19T02:32:54;865.20;;;754.53;;
27740;SDS011;15134;48.768;9.184;2023-11-19T02:35:30;870.40;;;763.55;;
27740;SDS011;15134;48.768;9.184;2023-11-19T02:37:58;870.83;;;764.92;;
27740;SDS011;15134;48.768;9.184;2023-11-19T02:40:25;872.40;;;767.75;;
27740;SDS011;15134;48.768;9.184;2023-11-19T02:42:53;872.65;;;768.67;;
27740;SDS011;15134;48.768;9.184;2023-11-19T02:45:22;873.03;;;771.28;;
27740;SDS011;15134;48.768;9.184;2023-11-19T02:47:48;876.15;;;777.90;;
27740;SDS011;15134;48.768;9.184;2023-11-19T02:50:15;874.27;;;774.33;;
27740;SDS011;15134;48.768;9.184;2023-11-19T02:52:41;871.03;;;768.00;;
27740;SDS011;15134;48.768;9.184;2023-11-19T02:55:08;872.28;;;767.20;;
27740;SDS011;15134;48.768;9.184;2023-11-19T02:57:38;874.42;;;773.47;;
27740;SDS011;15134;48.768;9.184;2023-11-19T03:00:20;874.60;;;775.10;;
27740;SDS011;15134;48.768;9.184;2023-11-19T03:02:56;872.30;;;767.33;;
27740;SDS011;15134;48.768;9.184;2023-11-19T03:05:30;872.88;;;769.33;;
27740;SDS011;15134;48.768;9.184;2023-11-19T03:07:56;877.50;;;780.10;;
27740;SDS011;15134;48.768;9.184;2023-11-19T03:10:22;874.67;;;774.40;;
27740;SDS011;15134;48.768;9.184;2023-11-19T03:12:49;880.95;;;783.42;;
27740;SDS011;15134;48.768;9.184;2023-11-19T03:15:15;882.88;;;785.25;;
27740;SDS011;15134;48.768;9.184;2023-11-19T03:17:41;873.80;;;775.97;;
27740;SDS011;15134;48.768;9.184;2023-11-19T03:20:10;873.72;;;774.60;;
27740;SDS011;15134;48.768;9.184;2023-11-19T03:22:42;870.50;;;766.17;;
27740;SDS011;15134;48.768;9.184;2023-11-19T03:25:08;872.30;;;767.72;;
27740;SDS011;15134;48.768;9.184;2023-11-19T03:27:35;875.22;;;770.30;;
27740;SDS011;15134;48.768;9.184;2023-11-19T03:30:02;875.58;;;772.92;;
27740;SDS011;15134;48.768;9.184;2023-11-19T03:32:30;874.35;;;776.22;;
27740;SDS011;15134;48.768;9.184;2023-11-19T03:34:57;873.90;;;775.78;;
27740;SDS011;15134;48.768;9.184;2023-11-19T03:37:24;877.13;;;779.80;;
27740;SDS011;15134;48.768;9.184;2023-11-19T03:39:51;874.30;;;776.33;;
27740;SDS011;15134;48.768;9.184;2023-11-19T03:42:21;872.15;;;772.92;;
27740;SDS011;15134;48.768;9.184;2023-11-19T03:44:47;871.83;;;770.13;;
27740;SDS011;15134;48.768;9.184;2023-11-19T03:47:15;870.53;;;767.38;;
27740;SDS011;15134;48.768;9.184;2023-11-19T03:49:41;870.85;;;768.35;;
27740;SDS011;15134;48.768;9.184;2023-11-19T03:52:07;871.05;;;768.78;;
27740;SDS011;15134;48.768;9.184;2023-11-19T03:54:34;870.40;;;764.33;;
27740;SDS011;15134;48.768;9.184;2023-11-19T03:57:01;869.47;;;762.53;;
27740;SDS011;15134;48.768;9.184;2023-11-19T03:59:28;870.38;;;767.10;;
27740;SDS011;15134;48.768;9.184;2023-11-19T04:01:54;870.00;;;765.77;;
27740;SDS011;15134;48.768;9.184;2023-11-19T04:04:21;871.50;;;769.93;;
27740;SDS011;15134;48.768;9.184;2023-11-19T04:06:47;867.70;;;763.95;;
27740;SDS011;15134;48.768;9.184;2023-11-19T04:09:13;869.78;;;766.70;;
27740;SDS011;15134;48.768;9.184;2023-11-19T04:11:39;872.63;;;773.07;;
27740;SDS011;15134;48.768;9.184;2023-11-19T04:14:05;873.92;;;775.95;;
27740;SDS011;15134;48.768;9.184;2023-11-19T04:16:31;870.88;;;765.50;;
27740;SDS011;15134;48.768;9.184;2023-11-19T04:18:57;872.07;;;769.67;;
27740;SDS011;15134;48.768;9.184;2023-11-19T04:21:24;873.92;;;774.47;;
27740;SDS011;15134;48.768;9.184;2023-11-19T04:23:51;871.85;;;773.45;;
27740;SDS011;15134;48.768;9.184;2023-11-19T04:26:16;872.93;;;774.23;;
27740;SDS011;15134;48.768;9.184;2023-11-19T04:28:42;871.90;;;770.33;;
27740;SDS011;15134;48.768;9.184;2023-11-19T04:31:08;879.37;;;782.03;;
27740;SDS011;15134;48.768;9.184;2023-11-19T04:33:34;877.58;;;780.17;;
27740;SDS011;15134;48.768;9.184;2023-11-19T04:36:00;878.38;;;781.08;;
27740;SDS011;15134;48.768;9.184;2023-11-19T04:38:26;880.97;;;783.63;;
27740;SDS011;15134;48.768;9.184;2023-11-19T04:40:52;884.42;;;786.85;;
27740;SDS011;15134;48.768;9.184;2023-11-19T04:43:17;885.33;;;787.73;;
27740;SDS011;15134;48.768;9.184;2023-11-19T04:45:44;878.93;;;781.53;;
27740;SDS011;15134;48.768;9.184;2023-11-19T04:48:10;880.90;;;783.50;;
27740;SDS011;15134;48.768;9.184;2023-11-19T04:50:37;876.90;;;778.20;;
27740;SDS011;15134;48.768;9.184;2023-11-19T04:53:03;876.30;;;779.10;;
27740;SDS011;15134;48.768;9.184;2023-11-19T04:55:29;873.73;;;774.27;;
27740;SDS011;15134;48.768;9.184;2023-11-19T04:57:55;876.33;;;779.03;;
27740;SDS011;15134;48.768;9.184;2023-11-19T05:00:21;874.67;;;775.40;;
27740;SDS011;15134;48.768;9.184;2023-11-19T05:02:46;873.13;;;772.87;;
27740;SDS011;15134;48.768;9.184;2023-11-19T05:05:12;875.73;;;778.57;;
27740;SDS011;15134;48.768;9.184;2023-11-19T05:07:38;875.10;;;777.63;;
27740;SDS011;15134;48.768;9.184;2023-11-19T05:10:04;872.17;;;769.28;;
27740;SDS011;15134;48.768;9.184;2023-11-19T05:12:31;871.78;;;772.38;;
27740;SDS011;15134;48.768;9.184;2023-11-19T05:14:56;872.67;;;767.80;;
27740;SDS011;15134;48.768;9.184;2023-11-19T05:17:23;874.30;;;776.90;;
27740;SDS011;15134;48.768;9.184;2023-11-19T05:19:49;869.03;;;763.03;;
27740;SDS011;15134;48.768;9.184;2023-11-19T05:22:14;874.87;;;776.53;;
27740;SDS011;15134;48.768;9.184;2023-11-19T05:24:40;872.50;;;774.77;;
27740;SDS011;15134;48.768;9.184;2023-11-19T05:27:06;873.87;;;776.87;;
27740;SDS011;15134;48.768;9.184;2023-11-19T05:29:33;878.20;;;780.90;;
27740;SDS011;15134;48.768;9.184;2023-11-19T05:31:59;876.10;;;778.72;;
27740;SDS011;15134;48.768;9.184;2023-11-19T05:34:25;881.08;;;783.58;;
27740;SDS011;15134;48.768;9.184;2023-11-19T05:36:51;876.15;;;778.95;;
27740;SDS011;15134;48.768;9.184;2023-11-19T05:39:17;887.30;;;789.40;;
27740;SDS011;15134;48.768;9.184;2023-11-19T05:41:45;882.75;;;785.17;;
27740;SDS011;15134;48.768;9.184;2023-11-19T05:44:11;882.50;;;784.90;;
27740;SDS011;15134;48.768;9.184;2023-11-19T05:46:37;877.43;;;779.50;;
27740;SDS011;15134;48.768;9.184;2023-11-19T05:49:06;877.47;;;780.45;;
27740;SDS011;15134;48.768;9.184;2023-11-19T05:51:32;881.50;;;783.85;;
27740;SDS011;15134;48.768;9.184;2023-11-19T05:54:02;883.20;;;785.63;;
27740;SDS011;15134;48.768;9.184;2023-11-19T05:56:28;879.85;;;782.42;;
27740;SDS011;15134;48.768;9.184;2023-11-19T05:58:57;879.22;;;781.80;;
27740;SDS011;15134;48.768;9.184;2023-11-19T06:01:26;879.33;;;781.95;;
27740;SDS011;15134;48.768;9.184;2023-11-19T06:03:52;875.85;;;778.65;;
27740;SDS011;15134;48.768;9.184;2023-11-19T06:06:18;887.72;;;789.95;;
27740;SDS011;15134;48.768;9.184;2023-11-19T06:08:44;884.78;;;787.13;;
27740;SDS011;15134;48.768;9.184;2023-11-19T06:11:10;874.90;;;775.95;;
27740;SDS011;15134;48.768;9.184;2023-11-19T06:13:46;877.20;;;779.97;;
27740;SDS011;15134;48.768;9.184;2023-11-19T06:16:13;878.85;;;781.42;;
27740;SDS011;15134;48.768;9.184;2023-11-19T06:18:39;878.42;;;781.00;;
27740;SDS011;15134;48.768;9.184;2023-11-19T06:21:06;885.95;;;788.28;;
27740;SDS011;15134;48.768;9.184;2023-11-19T06:23:32;882.13;;;784.53;;
27740;SDS011;15134;48.768;9.184;2023-11-19T06:25:58;881.40;;;783.90;;
27740;SDS011;15134;48.768;9.184;2023-11-19T06:28:23;891.77;;;793.73;;
27740;SDS011;15134;48.768;9.184;2023-11-19T06:30:50;884.20;;;786.63;;
27740;SDS011;15134;48.768;9.184;2023-11-19T06:33:15;884.10;;;786.38;;
27740;SDS011;15134;48.768;9.184;2023-11-19T06:35:41;884.20;;;786.53;;
27740;SDS011;15134;48.768;9.184;2023-11-19T06:38:07;889.15;;;790.92;;
27740;SDS011;15134;48.768;9.184;2023-11-19T06:40:33;893.97;;;795.95;;
27740;SDS011;15134;48.768;9.184;2023-11-19T06:43:00;901.85;;;803.55;;
27740;SDS011;15134;48.768;9.184;2023-11-19T06:45:26;888.10;;;790.30;;
27740;SDS011;15134;48.768;9.184;2023-11-19T06:47:52;889.63;;;791.55;;
27740;SDS011;15134;48.768;9.184;2023-11-19T06:50:17;885.93;;;788.23;;
27740;SDS011;15134;48.768;9.184;2023-11-19T06:52:44;888.95;;;791.05;;
27740;SDS011;15134;48.768;9.184;2023-11-19T06:55:10;900.22;;;801.83;;
27740;SDS011;15134;48.768;9.184;2023-11-19T06:57:36;900.20;;;801.78;;
27740;SDS011;15134;48.768;9.184;2023-11-19T07:00:02;900.40;;;802.03;;
27740;SDS011;15134;48.768;9.184;2023-11-19T07:02:30;901.80;;;803.43;;
27740;SDS011;15134;48.768;9.184;2023-11-19T07:04:56;899.90;;;801.67;;
27740;SDS011;15134;48.768;9.184;2023-11-19T07:07:22;895.85;;;797.78;;
27740;SDS011;15134;48.768;9.184;2023-11-19T07:09:48;885.50;;;787.85;;
27740;SDS011;15134;48.768;9.184;2023-11-19T07:12:14;885.88;;;788.08;;
27740;SDS011;15134;48.768;9.184;2023-11-19T07:14:40;890.38;;;792.47;;
27740;SDS011;15134;48.768;9.184;2023-11-19T07:17:07;885.72;;;787.97;;
27740;SDS011;15134;48.768;9.184;2023-11-19T07:19:34;884.27;;;786.50;;
27740;SDS011;15134;48.768;9.184;2023-11-19T07:22:01;878.38;;;781.15;;
27740;SDS011;15134;48.768;9.184;2023-11-19T07:24:27;876.00;;;776.45;;
27740;SDS011;15134;48.768;9.184;2023-11-19T07:26:53;874.85;;;776.90;;
27740;SDS011;15134;48.768;9.184;2023-11-19T07:29:19;879.15;;;781.83;;
27740;SDS011;15134;48.768;9.184;2023-11-19T07:31:48;874.75;;;774.55;;
27740;SDS011;15134;48.768;9.184;2023-11-19T07:34:17;871.83;;;771.00;;
27740;SDS011;15134;48.768;9.184;2023-11-19T07:36:43;872.47;;;770.20;;
27740;SDS011;15134;48.768;9.184;2023-11-19T07:39:08;873.40;;;773.40;;
27740;SDS011;15134;48.768;9.184;2023-11-19T07:41:34;875.67;;;778.67;;
27740;SDS011;15134;48.768;9.184;2023-11-19T07:44:04;876.78;;;779.47;;
27740;SDS011;15134;48.768;9.184;2023-11-19T07:46:30;876.17;;;778.97;;
27740;SDS011;15134;48.768;9.184;2023-11-19T07:48:57;874.33;;;777.23;;
27740;SDS011;15134;48.768;9.184;2023-11-19T07:51:23;875.53;;;778.37;;
27740;SDS011;15134;48.768;9.184;2023-11-19T07:53:48;879.20;;;781.90;;
27740;SDS011;15134;48.768;9.184;2023-11-19T07:56:14;887.67;;;790.08;;
27740;SDS011;15134;48.768;9.184;2023-11-19T07:58:40;889.90;;;792.13;;
27740;SDS011;15134;48.768;9.184;2023-11-19T08:01:06;893.05;;;795.17;;
27740;SDS011;15134;48.768;9.184;2023-11-19T08:03:32;896.83;;;798.70;;
27740;SDS011;15134;48.768;9.184;2023-11-19T08:06:01;893.72;;;795.67;;
27740;SDS011;15134;48.768;9.184;2023-11-19T08:08:28;888.10;;;790.33;;
27740;SDS011;15134;48.768;9.184;2023-11-19T08:10:58;893.03;;;795.05;;
27740;SDS011;15134;48.768;9.184;2023-11-19T08:13:24;889.40;;;791.47;;
27740;SDS011;15134;48.768;9.184;2023-11-19T08:15:50;897.03;;;798.92;;
27740;SDS011;15134;48.768;9.184;2023-11-19T08:18:16;897.35;;;799.13;;
27740;SDS011;15134;48.768;9.184;2023-11-19T08:20:43;910.25;;;811.55;;
27740;SDS011;15134;48.768;9.184;2023-11-19T08:23:10;902.13;;;803.80;;
27740;SDS011;15134;48.768;9.184;2023-11-19T08:25:36;916.03;;;817.00;;
27740;SDS011;15134;48.768;9.184;2023-11-19T08:28:01;912.35;;;813.58;;
27740;SDS011;15134;48.768;9.184;2023-11-19T08:30:28;920.23;;;820.93;;
27740;SDS011;15134;48.768;9.184;2023-11-19T08:32:55;922.72;;;823.38;;
27740;SDS011;15134;48.768;9.184;2023-11-19T08:35:21;919.92;;;820.78;;
27740;SDS011;15134;48.768;9.184;2023-11-19T08:37:47;914.72;;;815.85;;
27740;SDS011;15134;48.768;9.184;2023-11-19T08:40:12;927.17;;;827.65;;
27740;SDS011;15134;48.768;9.184;2023-11-19T08:42:39;934.53;;;834.65;;
27740;SDS011;15134;48.768;9.184;2023-11-19T08:45:06;928.92;;;829.60;;
27740;SDS011;15134;48.768;9.184;2023-11-19T08:47:35;933.30;;;833.80;;
27740;SDS011;15134;48.768;9.184;2023-11-19T08:50:01;936.13;;;836.53;;
27740;SDS011;15134;48.768;9.184;2023-11-19T08:52:29;936.85;;;837.28;;
27740;SDS011;15134;48.768;9.184;2023-11-19T08:54:55;940.97;;;841.17;;
27740;SDS011;15134;48.768;9.184;2023-11-19T08:57:22;937.40;;;837.35;;
27740;SDS011;15134;48.768;9.184;2023-11-19T08:59:47;936.88;;;837.17;;
27740;SDS011;15134;48.768;9.184;2023-11-19T09:02:13;935.00;;;835.38;;
27740;SDS011;15134;48.768;9.184;2023-11-19T09:04:39;948.50;;;848.28;;
27740;SDS011;15134;48.768;9.184;2023-11-19T09:07:06;940.30;;;840.33;;
27740;SDS011;15134;48.768;9.184;2023-11-19T09:09:34;944.00;;;843.83;;
27740;SDS011;15134;48.768;9.184;2023-11-19T09:12:01;942.33;;;842.38;;
27740;SDS011;15134;48.768;9.184;2023-11-19T09:14:29;937.15;;;837.15;;
27740;SDS011;15134;48.768;9.184;2023-11-19T09:16:55;948.72;;;848.30;;
27740;SDS011;15134;48.768;9.184;2023-11-19T09:19:21;943.97;;;843.97;;
27740;SDS011;15134;48.768;9.184;2023-11-19T09:21:47;953.43;;;853.00;;
27740;SDS011;15134;48.768;9.184;2023-11-19T09:24:14;949.78;;;849.55;;
27740;SDS011;15134;48.768;9.184;2023-11-19T09:26:40;942.30;;;842.30;;
27740;SDS011;15134;48.768;9.184;2023-11-19T09:29:07;948.00;;;847.90;;
27740;SDS011;15134;48.768;9.184;2023-11-19T09:31:33;943.53;;;843.65;;
27740;SDS011;15134;48.768;9.184;2023-11-19T09:33:59;946.22;;;846.10;;
27740;SDS011;15134;48.768;9.184;2023-11-19T09:36:26;944.93;;;845.13;;
27740;SDS011;15134;48.768;9.184;2023-11-19T09:38:51;959.03;;;858.33;;
27740;SDS011;15134;48.768;9.184;2023-11-19T09:41:17;953.27;;;853.00;;
27740;SDS011;15134;48.768;9.184;2023-11-19T09:43:44;956.13;;;855.53;;
27740;SDS011;15134;48.768;9.184;2023-11-19T09:46:12;964.92;;;864.22;;
27740;SDS011;15134;48.768;9.184;2023-11-19T09:48:40;967.73;;;867.53;;
27740;SDS011;15134;48.768;9.184;2023-11-19T09:51:07;957.63;;;857.22;;
27740;SDS011;15134;48.768;9.184;2023-11-19T09:53:35;963.75;;;863.17;;
27740;SDS011;15134;48.768;9.184;2023-11-19T09:56:02;961.03;;;860.42;;
27740;SDS011;15134;48.768;9.184;2023-11-19T09:58:32;957.22;;;857.08;;
27740;SDS011;15134;48.768;9.184;2023-11-19T10:00:59;957.08;;;856.88;;
27740;SDS011;15134;48.768;9.184;2023-11-19T10:03:34;955.33;;;855.28;;
27740;SDS011;15134;48.768;9.184;2023-11-19T10:06:03;962.00;;;861.35;;
27740;SDS011;15134;48.768;9.184;2023-11-19T10:08:31;963.67;;;863.25;;
27740;SDS011;15134;48.768;9.184;2023-11-19T10:10:58;967.08;;;866.53;;
27740;SDS011;15134;48.768;9.184;2023-11-19T10:13:27;969.67;;;869.08;;
27740;SDS011;15134;48.768;9.184;2023-11-19T10:15:54;974.17;;;873.47;;
27740;SDS011;15134;48.768;9.184;2023-11-19T10:18:25;975.53;;;874.55;;
27740;SDS011;15134;48.768;9.184;2023-11-19T10:20:52;974.17;;;873.25;;
27740;SDS011;15134;48.768;9.184;2023-11-19T10:23:18;980.22;;;879.08;;
27740;SDS011;15134;48.768;9.184;2023-11-19T10:25:44;977.57;;;876.63;;
27740;SDS011;15134;48.768;9.184;2023-11-19T10:28:10;987.97;;;886.53;;
27740;SDS011;15134;48.768;9.184;2023-11-19T10:30:36;985.43;;;884.07;;
27740;SDS011;15134;48.768;9.184;2023-11-19T10:35:52;992.65;;;891.25;;
27740;SDS011;15134;48.768;9.184;2023-11-19T10:38:23;992.17;;;890.47;;
27740;SDS011;15134;48.768;9.184;2023-11-19T10:40:49;991.65;;;890.00;;
27740;SDS011;15134;48.768;9.184;2023-11-19T10:43:17;992.00;;;890.17;;
27740;SDS011;15134;48.768;9.184;2023-11-19T10:45:43;995.67;;;893.77;;
27740;SDS011;15134;48.768;9.184;2023-11-19T10:48:09;994.28;;;892.78;;
27740;SDS011;15134;48.768;9.184;2023-11-19T10:50:39;994.55;;;892.97;;
27740;SDS011;15134;48.768;9.184;2023-11-19T10:53:06;1000.63;;;898.88;;
27740;SDS011;15134;48.768;9.184;2023-11-19T10:55:34;1002.30;;;900.67;;
27740;SDS011;15134;48.768;9.184;2023-11-19T10:58:10;1003.25;;;901.53;;
27740;SDS011;15134;48.768;9.184;2023-11-19T11:03:17;994.47;;;893.22;;
27740;SDS011;15134;48.768;9.184;2023-11-19T11:05:47;1005.47;;;903.83;;
27740;SDS011;15134;48.768;9.184;2023-11-19T11:08:14;1004.20;;;902.60;;
27740;SDS011;15134;48.768;9.184;2023-11-19T11:10:42;1000.63;;;899.05;;
27740;SDS011;15134;48.768;9.184;2023-11-19T11:13:10;1007.72;;;905.75;;
27740;SDS011;15134;48.768;9.184;2023-11-19T11:15:37;999.83;;;898.03;;
27740;SDS011;15134;48.768;9.184;2023-11-19T11:18:03;999.70;;;898.03;;
27740;SDS011;15134;48.768;9.184;2023-11-19T11:20:32;984.67;;;883.40;;
27740;SDS011;15134;48.768;9.184;2023-11-19T11:28:41;987.60;;;886.13;;
27740;SDS011;15134;48.768;9.184;2023-11-19T11:31:26;987.88;;;886.58;;
27740;SDS011;15134;48.768;9.184;2023-11-19T11:39:35;994.38;;;892.78;;
27740;SDS011;15134;48.768;9.184;2023-11-19T11:44:58;987.85;;;886.53;;
27740;SDS011;15134;48.768;9.184;2023-11-19T11:47:25;988.38;;;886.88;;
27740;SDS011;15134;48.768;9.184;2023-11-19T11:49:51;982.70;;;881.50;;
27740;SDS011;15134;48.768;9.184;2023-11-19T11:52:17;990.20;;;888.67;;
27740;SDS011;15134;48.768;9.184;2023-11-19T11:54:43;992.15;;;890.45;;
27740;SDS011;15134;48.768;9.184;2023-11-19T11:57:10;992.65;;;891.05;;
27740;SDS011;15134;48.768;9.184;2023-11-19T12:02:07;996.00;;;894.50;;
27740;SDS011;15134;48.768;9.184;2023-11-19T12:04:35;999.40;;;897.60;;
27740;SDS011;15134;48.768;9.184;2023-11-19T12:09:31;989.83;;;888.40;;
27740;SDS011;15134;48.768;9.184;2023-11-19T12:14:59;1004.50;;;902.70;;
27740;SDS011;15134;48.768;9.184;2023-11-19T12:20:03;1003.33;;;901.80;;
27740;SDS011;15134;48.768;9.184;2023-11-19T12:22:37;1005.50;;;903.80;;
27740;SDS011;15134;48.768;9.184;2023-11-19T12:25:04;1004.90;;;903.20;;
27740;SDS011;15134;48.768;9.184;2023-11-19T12:27:31;1011.97;;;910.00;;
27740;SDS011;15134;48.768;9.184;2023-11-19T12:29:59;1011.67;;;909.67;;
27740;SDS011;15134;48.768;9.184;2023-11-19T12:32:25;1012.67;;;910.67;;
27740;SDS011;15134;48.768;9.184;2023-11-19T12:34:51;1007.63;;;905.65;;
27740;SDS011;15134;48.768;9.184;2023-11-19T12:37:16;1008.07;;;906.17;;
27740;SDS011;15134;48.768;9.184;2023-11-19T12:39:42;1009.00;;;907.10;;
27740;SDS011;15134;48.768;9.184;2023-11-19T12:42:08;1008.07;;;905.97;;
27740;SDS011;15134;48.768;9.184;2023-11-19T12:44:34;1007.73;;;905.63;;
27740;SDS011;15134;48.768;9.184;2023-11-19T12:49:29;1004.88;;;902.65;;
27740;SDS011;15134;48.768;9.184;2023-11-19T12:51:55;1002.67;;;900.65;;
27740;SDS011;15134;48.768;9.184;2023-11-19T12:54:31;996.87;;;895.37;;
27740;SDS011;15134;48.768;9.184;2023-11-19T12:57:01;990.03;;;888.67;;
27740;SDS011;15134;48.768;9.184;2023-11-19T12:59:28;1000.58;;;898.67;;
27740;SDS011;15134;48.768;9.184;2023-11-19T13:01:57;996.30;;;894.58;;
27740;SDS011;15134;48.768;9.184;2023-11-19T13:04:23;992.08;;;890.35;;
27740;SDS011;15134;48.768;9.184;2023-11-19T13:06:53;996.38;;;894.55;;
27740;SDS011;15134;48.768;9.184;2023-11-19T13:09:23;995.20;;;893.53;;
27740;SDS011;15134;48.768;9.184;2023-11-19T13:11:53;991.47;;;890.28;;
27740;SDS011;15134;48.768;9.184;2023-11-19T13:14:19;993.40;;;891.85;;
27740;SDS011;15134;48.768;9.184;2023-11-19T13:16:46;989.20;;;887.63;;
27740;SDS011;15134;48.768;9.184;2023-11-19T13:19:15;987.83;;;886.70;;
27740;SDS011;15134;48.768;9.184;2023-11-19T13:21:41;988.50;;;887.10;;
27740;SDS011;15134;48.768;9.184;2023-11-19T13:24:08;983.85;;;882.30;;
27740;SDS011;15134;48.768;9.184;2023-11-19T13:26:34;986.58;;;885.03;;
27740;SDS011;15134;48.768;9.184;2023-11-19T13:29:00;989.63;;;887.92;;
27740;SDS011;15134;48.768;9.184;2023-11-19T13:31:26;988.70;;;887.28;;
27740;SDS011;15134;48.768;9.184;2023-11-19T13:33:51;989.72;;;888.42;;
27740;SDS011;15134;48.768;9.184;2023-11-19T13:36:17;988.67;;;887.20;;
27740;SDS011;15134;48.768;9.184;2023-11-19T13:38:43;987.72;;;886.15;;
27740;SDS011;15134;48.768;9.184;2023-11-19T13:41:09;988.25;;;886.67;;
27740;SDS011;15134;48.768;9.184;2023-11-19T13:43:36;992.58;;;890.92;;
27740;SDS011;15134;48.768;9.184;2023-11-19T13:46:02;990.25;;;888.75;;
27740;SDS011;15134;48.768;9.184;2023-11-19T13:48:28;989.85;;;888.47;;
27740;SDS011;15134;48.768;9.184;2023-11-19T13:50:55;988.13;;;886.38;;
27740;SDS011;15134;48.768;9.184;2023-11-19T13:53:21;986.77;;;884.93;;
27740;SDS011;15134;48.768;9.184;2023-11-19T13:55:48;978.65;;;877.65;;
27740;SDS011;15134;48.768;9.184;2023-11-19T13:58:13;972.70;;;871.47;;
27740;SDS011;15134;48.768;9.184;2023-11-19T14:00:39;972.80;;;871.60;;
27740;SDS011;15134;48.768;9.184;2023-11-19T14:03:07;970.10;;;868.92;;
27740;SDS011;15134;48.768;9.184;2023-11-19T14:05:33;970.50;;;869.40;;
27740;SDS011;15134;48.768;9.184;2023-11-19T14:07:58;962.55;;;861.63;;
27740;SDS011;15134;48.768;9.184;2023-11-19T14:10:26;963.10;;;862.17;;
27740;SDS011;15134;48.768;9.184;2023-11-19T14:12:52;960.90;;;860.10;;
27740;SDS011;15134;48.768;9.184;2023-11-19T14:15:18;962.60;;;861.60;;
27740;SDS011;15134;48.768;9.184;2023-11-19T14:17:43;967.30;;;866.30;;
27740;SDS011;15134;48.768;9.184;2023-11-19T14:20:09;967.30;;;866.20;;
27740;SDS011;15134;48.768;9.184;2023-11-19T14:22:42;967.85;;;866.95;;
27740;SDS011;15134;48.768;9.184;2023-11-19T14:25:09;966.05;;;865.08;;
27740;SDS011;15134;48.768;9.184;2023-11-19T14:27:36;973.72;;;872.53;;